South Arkansas Regional At Goodwin Field
KELD : now visible

Airfield :











YOU CAN JOIN US ON...

 
LOGIN :

Register | Disclaimer

   EN    FR    IT 

 









Legend :    VFR   Marginal VFR   IFR   Intensive IFR   Very Intensive IFR
Visi :
Ceiling :
>= 8 km
>= 3000ft
5 to 8 km
1000 to 3000 ft
1500m to 5 km
500 to 1000 ft
800 to 1500m
200 to 500 ft
< 800m
< 200 ft
Symbols :   Thunderstorms  Fog  Heavy snow  Heavy precipitations  Wind > 20 kt






- Airport Elevation : 277 ft
- IATA code : ELD


KELD - South Arkansas Regional At Goodwin Field

CURRENT METAR :
  • 191610Z AUTO VRB03KT 10SM SCT024 BKN028 27/22 A2999 RMK AO2 T02720217

EXPIRED METARs :
  • 191553Z AUTO VRB03KT 10SM FEW023 BKN080 BKN100 27/22 A2999 RMK AO2 SLP150 T02720217
  • 191453Z AUTO 00000KT 10SM SCT080 BKN100 26/22 A2999 RMK AO2 SLP151 T02560217 51010
  • 191353Z AUTO 00000KT 10SM BKN065 OVC085 23/22 A2998 RMK AO2 SLP150 T02330217

TAF KELD
Valid from the 19 at 12:00 until the 20 at 12:00 UTC


191127Z 1912/2012 00000KT 2SM BR SCT005 SCT100 SCT250
TEMPO 1912/1914 P6SM NSW BKN060
FM191400 08003KT P6SM BKN060
FM191700 11004KT P6SM SCT060 SCT250
FM200000 12004KT P6SM SCT045 BKN250
FM200600 15003KT P6SM SCT045 BKN250
KZFW FIR / North America



MET'MAP, your aeronautical weather chart ! - Copyright ORBIFLY December 2007 - Disclaimer

ORBIFLY MET'MAP TEAM :

Programming & Development : Alexandra Zaïnal
Original concept : Baudouin d'Aumeries
Technical & hardware support : Manuel Goepfert
Assistance : Marc-Olivier Méhu




SOURCES & CREDITS :

   NOAA       Earth
Advisory